createdAt,value
2023-01-13T00:01:15.258Z,95331.09
2023-01-13T00:03:42.871Z,95326.09
2023-01-13T00:06:13.950Z,95340.22
2023-01-13T00:08:40.749Z,95340.63
2023-01-13T00:11:07.369Z,95345.53
2023-01-13T00:13:35.400Z,95352.44
2023-01-13T00:16:07.365Z,95335.25
2023-01-13T00:18:36.839Z,95348.69
2023-01-13T00:21:10.544Z,95335.69
2023-01-13T00:23:37.168Z,95346.47
2023-01-13T00:26:08.013Z,95345.28
2023-01-13T00:28:35.222Z,95341.44
2023-01-13T00:31:14.680Z,95341.78
2023-01-13T00:33:41.577Z,95317.38
2023-01-13T00:36:10.955Z,95322.72
2023-01-13T00:38:38.906Z,95341.03
2023-01-13T00:41:11.437Z,95323.81
2023-01-13T00:43:38.444Z,95339.16
2023-01-13T00:46:07.291Z,95338.09
2023-01-13T00:48:34.072Z,95324.72
2023-01-13T00:51:02.306Z,95341.19
2023-01-13T00:53:29.946Z,95331.63
2023-01-13T00:56:08.256Z,95338.94
2023-01-13T00:58:36.126Z,95337.03
2023-01-13T01:01:11.492Z,95324.78
2023-01-13T01:03:38.487Z,95307.13
2023-01-13T01:06:10.940Z,95320.38
2023-01-13T01:08:37.575Z,95338.84
2023-01-13T01:11:06.954Z,95336.47
2023-01-13T01:13:34.110Z,95333.41
2023-01-13T01:16:03.412Z,95326.50
2023-01-13T01:18:30.015Z,95303.50
2023-01-13T01:21:00.028Z,95293.47
2023-01-13T01:23:29.290Z,95320.19
2023-01-13T01:26:02.460Z,95319.56
2023-01-13T01:28:29.300Z,95314.09
2023-01-13T01:30:56.056Z,95304.59
2023-01-13T01:33:22.698Z,95311.50
2023-01-13T01:35:49.250Z,95316.81
2023-01-13T01:38:16.009Z,95308.13
2023-01-13T01:40:42.757Z,95307.31
2023-01-13T01:44:05.369Z,95314.88
2023-01-13T01:46:38.330Z,95314.00
2023-01-13T01:49:18.220Z,95304.88
2023-01-13T01:52:33.106Z,95306.56
2023-01-13T01:55:05.201Z,95306.13
2023-01-13T01:57:51.749Z,95310.59
2023-01-13T02:00:18.943Z,95295.22
2023-01-13T02:02:48.423Z,95306.84
2023-01-13T02:05:15.701Z,95307.94
2023-01-13T02:07:44.678Z,95292.06
2023-01-13T02:10:15.015Z,95307.56
2023-01-13T02:12:45.141Z,95311.53
2023-01-13T02:15:15.532Z,95303.13
2023-01-13T02:18:03.566Z,95309.94
2023-01-13T02:20:45.561Z,95304.94
2023-01-13T02:24:04.941Z,95299.84
2023-01-13T02:26:59.024Z,95304.88
2023-01-13T02:29:56.661Z,95300.41
2023-01-13T02:32:33.273Z,95304.97
2023-01-13T02:35:29.122Z,95297.31
2023-01-13T02:37:58.600Z,95293.91
2023-01-13T02:40:28.836Z,95296.50
2023-01-13T02:43:25.586Z,95293.75
2023-01-13T02:45:52.161Z,95301.03
2023-01-13T02:48:22.911Z,95290.72
2023-01-13T02:51:14.015Z,95298.72
2023-01-13T02:54:10.069Z,95297.84
2023-01-13T02:56:42.127Z,95272.63
2023-01-13T02:59:10.547Z,95294.06
2023-01-13T03:01:37.354Z,95296.09
2023-01-13T03:04:45.156Z,95297.56
2023-01-13T03:07:23.719Z,95287.22
2023-01-13T03:10:02.125Z,95290.25
2023-01-13T03:12:51.956Z,95281.13
2023-01-13T03:15:37.123Z,95296.78
2023-01-13T03:18:28.460Z,95291.88
2023-01-13T03:21:36.496Z,95297.38
2023-01-13T03:24:11.709Z,95301.69
2023-01-13T03:26:52.760Z,95292.84
2023-01-13T03:29:25.861Z,95282.84
2023-01-13T03:32:13.878Z,95285.56
2023-01-13T03:34:47.301Z,95296.31
2023-01-13T03:37:16.861Z,95305.84
2023-01-13T03:39:55.460Z,95307.06
2023-01-13T03:42:25.876Z,95308.19
2023-01-13T03:45:05.380Z,95308.19
2023-01-13T03:47:49.496Z,95294.38
2023-01-13T03:50:27.819Z,95310.06
2023-01-13T03:53:02.349Z,95305.81
2023-01-13T03:55:34.076Z,95301.66
2023-01-13T03:58:15.893Z,95312.00
2023-01-13T04:00:49.751Z,95317.69
2023-01-13T04:03:33.804Z,95289.72
2023-01-13T04:06:16.402Z,95265.22
2023-01-13T04:08:52.585Z,95269.88
2023-01-13T04:11:29.547Z,95319.25
2023-01-13T04:13:57.616Z,95308.59
2023-01-13T04:16:24.369Z,95313.16
2023-01-13T04:18:50.976Z,95322.66
2023-01-13T04:21:17.623Z,95314.47
2023-01-13T04:23:44.190Z,95324.63
2023-01-13T04:26:10.721Z,95315.78
2023-01-13T04:28:37.490Z,95324.59
2023-01-13T04:31:04.251Z,95332.97
2023-01-13T04:33:30.994Z,95313.31
2023-01-13T04:35:57.635Z,95321.78
2023-01-13T04:38:24.255Z,95321.78
2023-01-13T04:40:50.936Z,95303.00
2023-01-13T04:43:17.717Z,95308.78
2023-01-13T04:45:44.862Z,95298.50
2023-01-13T04:48:11.621Z,95321.38
2023-01-13T04:50:38.484Z,95334.06
2023-01-13T04:53:05.899Z,95309.91
2023-01-13T04:55:32.513Z,95334.03
2023-01-13T04:58:04.642Z,95302.75
2023-01-13T05:00:32.106Z,95324.94
2023-01-13T05:02:59.563Z,95314.63
2023-01-13T05:05:28.313Z,95334.38
2023-01-13T05:07:55.390Z,95315.78
2023-01-13T05:10:24.002Z,95338.75
2023-01-13T05:13:09.607Z,95339.16
2023-01-13T05:15:55.138Z,95330.78
2023-01-13T05:18:21.908Z,95346.88
2023-01-13T05:20:49.555Z,95349.16
2023-01-13T05:23:34.727Z,95329.31
2023-01-13T05:26:01.315Z,95345.34
2023-01-13T05:28:33.004Z,95341.19
2023-01-13T05:31:00.389Z,95339.66
2023-01-13T05:33:27.084Z,95347.38
2023-01-13T05:35:53.748Z,95346.59
2023-01-13T05:38:20.720Z,95352.03
2023-01-13T05:41:06.109Z,95342.84
2023-01-13T05:43:33.297Z,95342.81
2023-01-13T05:46:03.149Z,95340.88
2023-01-13T05:48:31.249Z,95346.56
2023-01-13T05:50:57.893Z,95333.63
2023-01-13T05:53:25.202Z,95335.50
2023-01-13T05:55:51.984Z,95337.50
2023-01-13T05:58:20.668Z,95358.09
2023-01-13T06:00:47.539Z,95349.25
2023-01-13T06:03:16.003Z,95363.38
2023-01-13T06:05:43.304Z,95346.56
2023-01-13T06:08:12.204Z,95342.41
2023-01-13T06:10:38.806Z,95365.03
2023-01-13T06:13:06.742Z,95351.72
2023-01-13T06:15:33.472Z,95365.06
2023-01-13T06:18:02.438Z,95358.94
2023-01-13T06:20:29.092Z,95352.75
2023-01-13T06:22:55.785Z,95368.03
2023-01-13T06:25:25.010Z,95382.59
2023-01-13T06:27:53.259Z,95375.66
2023-01-13T06:30:19.885Z,95378.34
2023-01-13T06:32:52.137Z,95374.88
2023-01-13T06:35:20.580Z,95380.31
2023-01-13T06:37:49.991Z,95378.88
2023-01-13T06:40:17.315Z,95358.19
2023-01-13T06:43:02.759Z,95379.53
2023-01-13T06:45:30.834Z,95377.63
2023-01-13T06:47:59.897Z,95372.25
2023-01-13T06:50:28.136Z,95367.97
2023-01-13T06:52:54.837Z,95356.91
2023-01-13T06:55:21.759Z,95391.75
2023-01-13T06:57:54.320Z,95365.56
2023-01-13T07:00:22.621Z,95362.16
2023-01-13T07:02:49.675Z,95359.75
2023-01-13T07:05:17.993Z,95373.88
2023-01-13T07:07:45.335Z,95382.00
2023-01-13T07:10:14.242Z,95374.16
2023-01-13T07:12:59.924Z,95342.38
2023-01-13T07:15:27.246Z,95372.53
2023-01-13T07:17:53.957Z,95367.50
2023-01-13T07:20:20.601Z,95368.88
2023-01-13T07:22:47.202Z,95373.28
2023-01-13T07:25:13.862Z,95361.69
2023-01-13T07:27:40.530Z,95360.47
2023-01-13T07:30:07.896Z,95359.41
2023-01-13T07:32:34.644Z,95367.09
2023-01-13T07:35:05.363Z,95369.03
2023-01-13T07:37:36.955Z,95368.25
2023-01-13T07:40:04.993Z,95372.50
2023-01-13T07:42:50.317Z,95367.38
2023-01-13T07:45:17.105Z,95372.69
2023-01-13T07:47:43.711Z,95369.50
2023-01-13T07:50:10.801Z,95366.75
2023-01-13T07:52:37.428Z,95367.84
2023-01-13T07:55:04.227Z,95384.28
2023-01-13T07:57:30.890Z,95386.84
2023-01-13T07:59:57.532Z,95378.56
2023-01-13T08:02:24.340Z,95387.59
2023-01-13T08:04:51.161Z,95363.41
2023-01-13T08:07:17.952Z,95368.38
2023-01-13T08:09:44.574Z,95394.84
2023-01-13T08:12:29.963Z,95375.50
2023-01-13T08:14:56.639Z,95359.25
2023-01-13T08:17:23.271Z,95380.06
2023-01-13T08:19:49.921Z,95390.34
2023-01-13T08:22:16.540Z,95390.34
2023-01-13T08:24:43.180Z,95380.06
2023-01-13T08:27:09.829Z,95367.44
2023-01-13T08:29:36.463Z,95390.88
2023-01-13T08:32:03.172Z,95389.88
2023-01-13T08:34:29.972Z,95378.28
2023-01-13T08:36:56.566Z,95373.81
2023-01-13T08:39:25.154Z,95380.59
2023-01-13T08:41:58.580Z,95383.06
2023-01-13T08:44:30.743Z,95372.44
2023-01-13T08:46:57.862Z,95380.84
2023-01-13T08:49:25.733Z,95393.75
2023-01-13T08:51:53.724Z,95387.25
2023-01-13T08:54:20.745Z,95376.16
2023-01-13T08:56:48.348Z,95379.84
2023-01-13T08:59:17.246Z,95392.69
2023-01-13T09:01:45.265Z,95392.81
2023-01-13T09:04:21.523Z,95396.13
2023-01-13T09:06:48.798Z,95392.81
2023-01-13T09:09:16.225Z,95396.69
2023-01-13T09:12:03.971Z,95386.72
2023-01-13T09:14:33.223Z,95378.31
2023-01-13T09:17:00.296Z,95394.53
2023-01-13T09:19:28.287Z,95386.94
2023-01-13T09:21:56.150Z,95379.72
2023-01-13T09:24:23.576Z,95391.38
2023-01-13T09:26:50.436Z,95374.28
2023-01-13T09:29:17.540Z,95381.16
2023-01-13T09:31:44.580Z,95381.84
2023-01-13T09:34:37.100Z,95368.22
2023-01-13T09:37:05.811Z,95394.69
2023-01-13T09:39:33.499Z,95383.31
2023-01-13T09:42:41.816Z,95379.13
2023-01-13T09:45:26.367Z,95382.81
2023-01-13T09:48:32.960Z,95383.69
2023-01-13T09:51:28.362Z,95383.31
2023-01-13T09:54:00.824Z,95331.69
2023-01-13T09:56:27.260Z,95370.41
2023-01-13T09:58:54.041Z,95364.72
2023-01-13T10:01:36.103Z,95357.50
2023-01-13T10:04:12.636Z,95365.69
2023-01-13T10:06:44.800Z,95362.72
2023-01-13T10:09:27.384Z,95342.41
2023-01-13T10:12:14.818Z,95344.09
2023-01-13T10:14:48.206Z,95349.69
2023-01-13T10:17:23.452Z,95351.53
2023-01-13T10:20:05.126Z,95348.41
2023-01-13T10:22:40.729Z,95344.44
2023-01-13T10:25:40.673Z,95348.34
2023-01-13T10:28:18.468Z,95349.31
2023-01-13T10:30:47.796Z,95343.50
2023-01-13T10:33:20.814Z,95329.53
2023-01-13T10:35:52.784Z,95334.47
2023-01-13T10:38:21.063Z,95329.97
2023-01-13T10:41:02.454Z,95323.63
2023-01-13T10:43:30.587Z,95319.47
2023-01-13T10:46:11.005Z,95319.72
2023-01-13T10:48:43.443Z,95309.50
2023-01-13T10:51:21.109Z,95325.81
2023-01-13T10:54:13.863Z,95329.09
2023-01-13T10:56:42.931Z,95304.72
2023-01-13T10:59:14.871Z,95319.19
2023-01-13T11:02:24.963Z,95318.13
2023-01-13T11:05:02.735Z,95321.69
2023-01-13T11:07:52.701Z,95315.34
2023-01-13T11:10:24.629Z,95325.84
2023-01-13T11:12:58.689Z,95324.22
2023-01-13T11:15:38.319Z,95317.53
2023-01-13T11:18:40.412Z,95313.13
2023-01-13T11:21:23.235Z,95311.31
2023-01-13T11:24:09.891Z,95301.34
2023-01-13T11:26:52.056Z,95299.22
2023-01-13T11:29:27.319Z,95305.31
2023-01-13T11:32:03.518Z,95278.25
2023-01-13T11:34:35.576Z,95306.16
2023-01-13T11:37:09.734Z,95301.16
2023-01-13T11:39:55.312Z,95296.50
2023-01-13T11:42:32.179Z,95302.50
2023-01-13T11:45:17.563Z,95295.84
2023-01-13T11:47:51.320Z,95297.84
2023-01-13T11:50:23.687Z,95294.81
2023-01-13T11:52:59.140Z,95286.88
2023-01-13T11:55:45.349Z,95279.00
2023-01-13T11:58:33.731Z,95288.56
2023-01-13T12:01:22.928Z,95271.34
2023-01-13T12:04:22.348Z,95286.50
2023-01-13T12:06:59.102Z,95283.94
2023-01-13T12:09:39.282Z,95280.97
2023-01-13T12:12:44.436Z,95286.53
2023-01-13T12:15:26.136Z,95278.16
2023-01-13T12:18:13.673Z,95272.72
2023-01-13T12:21:08.035Z,95256.91
2023-01-13T12:23:51.894Z,95263.72
2023-01-13T12:26:18.548Z,95250.63
2023-01-13T12:28:54.170Z,95273.38
2023-01-13T12:31:22.309Z,95277.41
2023-01-13T12:33:55.010Z,95276.31
2023-01-13T12:36:49.785Z,95276.31
2023-01-13T12:39:34.637Z,95275.47
2023-01-13T12:42:51.717Z,95267.44
2023-01-13T12:45:21.251Z,95289.75
2023-01-13T12:47:48.033Z,95277.19
2023-01-13T12:50:26.591Z,95277.75
2023-01-13T12:52:56.998Z,95272.09
2023-01-13T12:55:36.429Z,95271.50
2023-01-13T12:58:06.080Z,95288.09
2023-01-13T13:00:41.660Z,95287.41
2023-01-13T13:03:09.995Z,95277.44
2023-01-13T13:05:55.319Z,95281.41
2023-01-13T13:08:40.050Z,95284.22
2023-01-13T13:11:34.164Z,95273.97
2023-01-13T13:14:03.795Z,95287.69
2023-01-13T13:16:30.470Z,95290.38
2023-01-13T13:19:19.335Z,95295.09
2023-01-13T13:22:18.751Z,95290.44
2023-01-13T13:24:51.324Z,95289.63
2023-01-13T13:27:18.945Z,95273.38
2023-01-13T13:29:57.842Z,95289.97
2023-01-13T13:32:27.800Z,95284.81
2023-01-13T13:35:18.471Z,95280.75
2023-01-13T13:38:09.630Z,95296.31
2023-01-13T13:41:04.468Z,95295.25
2023-01-13T13:44:03.673Z,95299.75
2023-01-13T13:46:46.911Z,95290.28
2023-01-13T13:49:41.313Z,95297.75
2023-01-13T13:52:26.802Z,95308.28
2023-01-13T13:54:58.214Z,95292.97
2023-01-13T13:57:39.680Z,95289.41
2023-01-13T14:00:19.175Z,95296.59
2023-01-13T14:02:54.067Z,95268.00
2023-01-13T14:05:24.159Z,95304.09
2023-01-13T14:08:01.822Z,95288.28
2023-01-13T14:10:32.255Z,95293.38
2023-01-13T14:13:25.059Z,95298.69
2023-01-13T14:16:06.858Z,95286.09
2023-01-13T14:18:44.348Z,95305.25
2023-01-13T14:21:22.710Z,95308.88
2023-01-13T14:23:54.961Z,95296.03
2023-01-13T14:26:25.914Z,95291.75
2023-01-13T14:28:53.582Z,95294.69
2023-01-13T14:31:20.794Z,95280.91
2023-01-13T14:33:51.473Z,95296.41
2023-01-13T14:36:23.013Z,95303.69
2023-01-13T14:39:16.562Z,95305.13
2023-01-13T14:41:43.109Z,95308.09
2023-01-13T14:44:35.057Z,95312.34
2023-01-13T14:47:22.945Z,95308.06
2023-01-13T14:49:52.647Z,95318.88
2023-01-13T14:52:24.069Z,95308.41
2023-01-13T14:55:19.868Z,95316.72
2023-01-13T14:57:49.784Z,95320.47
2023-01-13T15:00:18.591Z,95317.69
2023-01-13T15:02:57.595Z,95326.50
2023-01-13T15:05:27.157Z,95325.31
2023-01-13T15:08:02.545Z,95330.56
2023-01-13T15:10:31.966Z,95296.72
2023-01-13T15:13:02.501Z,95321.88
2023-01-13T15:15:34.782Z,95321.78
2023-01-13T15:18:02.267Z,95321.22
2023-01-13T15:20:29.464Z,95324.19
2023-01-13T15:22:58.760Z,95313.47
2023-01-13T15:25:25.433Z,95313.03
2023-01-13T15:27:53.147Z,95313.81
2023-01-13T15:30:25.397Z,95311.94
2023-01-13T15:32:55.891Z,95317.78
2023-01-13T15:35:24.852Z,95323.81
2023-01-13T15:37:51.895Z,95324.41
2023-01-13T15:40:22.819Z,95329.25
2023-01-13T15:43:08.470Z,95330.09
2023-01-13T15:45:55.799Z,95321.09
2023-01-13T15:48:24.233Z,95329.53
2023-01-13T15:50:51.331Z,95324.06
2023-01-13T15:53:18.197Z,95329.25
2023-01-13T15:55:49.425Z,95328.44
2023-01-13T15:58:28.089Z,95305.88
2023-01-13T16:00:55.146Z,95336.91
2023-01-13T16:03:22.079Z,95330.50
2023-01-13T16:05:48.731Z,95333.91
2023-01-13T16:08:16.859Z,95324.56
2023-01-13T16:10:44.842Z,95305.44
2023-01-13T16:13:12.689Z,95321.91
2023-01-13T16:15:50.181Z,95320.91
2023-01-13T16:18:19.945Z,95302.38
2023-01-13T16:20:47.108Z,95310.63
2023-01-13T16:23:14.018Z,95308.75
2023-01-13T16:25:46.579Z,95333.91
2023-01-13T16:28:24.040Z,95331.91
2023-01-13T16:30:51.249Z,95310.75
2023-01-13T16:33:18.062Z,95332.16
2023-01-13T16:36:10.311Z,95321.03
2023-01-13T16:38:31.276Z,95333.97
2023-01-13T16:40:58.127Z,95333.91
2023-01-13T16:43:24.758Z,95341.97
2023-01-13T16:45:51.513Z,95331.06
2023-01-13T16:48:20.187Z,95340.81
2023-01-13T16:50:47.048Z,95324.34
2023-01-13T16:53:13.702Z,95333.28
2023-01-13T16:55:42.045Z,95320.19
2023-01-13T16:58:19.366Z,95338.63
2023-01-13T17:00:47.484Z,95346.31
2023-01-13T17:03:15.326Z,95329.41
2023-01-13T17:05:43.706Z,95343.81
2023-01-13T17:08:17.748Z,95330.84
2023-01-13T17:10:45.569Z,95320.72
2023-01-13T17:13:16.376Z,95343.72
2023-01-13T17:15:44.044Z,95335.56
2023-01-13T17:18:11.612Z,95315.75
2023-01-13T17:20:38.174Z,95336.03
2023-01-13T17:23:04.737Z,95331.91
2023-01-13T17:25:31.450Z,95328.56
2023-01-13T17:27:58.283Z,95335.59
2023-01-13T17:30:27.196Z,95327.19
2023-01-13T17:32:53.976Z,95331.16
2023-01-13T17:35:24.774Z,95314.44
2023-01-13T17:37:52.983Z,95352.47
2023-01-13T17:40:19.878Z,95324.56
2023-01-13T17:42:48.371Z,95339.31
2023-01-13T17:45:16.334Z,95332.59
2023-01-13T17:47:42.955Z,95348.03
2023-01-13T17:50:10.296Z,95338.06
2023-01-13T17:52:36.914Z,95340.22
2023-01-13T17:55:03.731Z,95316.81
2023-01-13T17:57:30.316Z,95335.16
2023-01-13T17:59:58.338Z,95342.97
2023-01-13T18:02:25.258Z,95346.09
2023-01-13T18:04:52.122Z,95338.41
2023-01-13T18:07:18.920Z,95338.81
2023-01-13T18:09:45.548Z,95332.47
2023-01-13T18:12:12.259Z,95331.47
2023-01-13T18:14:38.975Z,95340.78
2023-01-13T18:17:06.110Z,95323.25
2023-01-13T18:19:51.325Z,95317.00
2023-01-13T18:22:36.660Z,95336.25
2023-01-13T18:25:22.178Z,95335.84
2023-01-13T18:27:48.853Z,95316.38
2023-01-13T18:30:15.768Z,95335.22
2023-01-13T18:32:42.585Z,95338.94
2023-01-13T18:35:10.596Z,95346.41
2023-01-13T18:37:40.385Z,95337.63
2023-01-13T18:40:09.589Z,95339.41
2023-01-13T18:42:54.308Z,95336.78
2023-01-13T18:45:24.417Z,95343.53
2023-01-13T18:47:52.104Z,95328.38
2023-01-13T18:50:19.162Z,95336.69
2023-01-13T18:52:46.285Z,95297.88
2023-01-13T18:55:13.444Z,95300.94
2023-01-13T18:57:40.611Z,95315.28
2023-01-13T19:00:14.165Z,95328.91
2023-01-13T19:02:41.294Z,95328.06
2023-01-13T19:05:08.716Z,95326.50
2023-01-13T19:07:36.201Z,95310.00
2023-01-13T19:10:05.000Z,95332.94
2023-01-13T19:12:33.706Z,95321.28
2023-01-13T19:15:01.927Z,95323.84
2023-01-13T19:17:33.623Z,95331.69
2023-01-13T19:20:00.961Z,95336.13
2023-01-13T19:22:30.972Z,95331.06
2023-01-13T19:24:58.332Z,95308.97
2023-01-13T19:27:27.472Z,95337.03
2023-01-13T19:29:57.654Z,95324.28
2023-01-13T19:32:24.482Z,95310.88
2023-01-13T19:34:51.485Z,95329.81
2023-01-13T19:37:19.633Z,95331.63
2023-01-13T19:39:46.613Z,95306.88
2023-01-13T19:42:36.895Z,95318.75
2023-01-13T19:45:22.671Z,95318.31
2023-01-13T19:47:49.503Z,95337.25
2023-01-13T19:50:16.363Z,95324.69
2023-01-13T19:52:43.828Z,95306.13
2023-01-13T19:55:12.509Z,95319.16
2023-01-13T19:57:40.587Z,95327.59
2023-01-13T20:00:09.369Z,95314.34
2023-01-13T20:02:37.098Z,95329.47
2023-01-13T20:05:06.720Z,95319.72
2023-01-13T20:07:33.771Z,95310.22
2023-01-13T20:10:01.692Z,95313.88
2023-01-13T20:12:29.277Z,95305.50
2023-01-13T20:14:56.897Z,95316.50
2023-01-13T20:17:25.702Z,95320.25
2023-01-13T20:19:52.921Z,95307.31
2023-01-13T20:22:19.770Z,95323.91
2023-01-13T20:24:46.377Z,95313.91
2023-01-13T20:27:13.059Z,95303.41
2023-01-13T20:29:39.698Z,95315.19
2023-01-13T20:32:06.437Z,95311.22
2023-01-13T20:34:33.267Z,95287.00
2023-01-13T20:37:00.372Z,95297.59
2023-01-13T20:39:27.182Z,95284.38
2023-01-13T20:42:13.023Z,95306.44
2023-01-13T20:44:39.969Z,95296.19
2023-01-13T20:47:07.169Z,95308.66
2023-01-13T20:49:36.206Z,95300.72
2023-01-13T20:52:09.252Z,95301.28
2023-01-13T20:54:37.149Z,95326.19
2023-01-13T20:57:07.934Z,95313.66
2023-01-13T20:59:34.660Z,95322.16
2023-01-13T21:02:01.566Z,95311.69
2023-01-13T21:04:28.880Z,95307.91
2023-01-13T21:06:56.340Z,95304.91
2023-01-13T21:09:24.380Z,95303.06
2023-01-13T21:12:09.593Z,95293.94
2023-01-13T21:14:54.835Z,95313.41
2023-01-13T21:17:40.795Z,95314.09
2023-01-13T21:20:10.306Z,95318.47
2023-01-13T21:22:37.264Z,95318.50
2023-01-13T21:25:04.865Z,95313.88
2023-01-13T21:27:32.090Z,95316.13
2023-01-13T21:30:00.783Z,95323.03
2023-01-13T21:32:27.340Z,95319.63
2023-01-13T21:34:53.929Z,95303.78
2023-01-13T21:37:20.692Z,95308.19
2023-01-13T21:39:47.310Z,95328.31
2023-01-13T21:42:33.895Z,95290.41
2023-01-13T21:45:18.939Z,95325.13
2023-01-13T21:47:48.617Z,95294.28
2023-01-13T21:50:21.153Z,95323.34
2023-01-13T21:52:54.681Z,95316.03
2023-01-13T21:55:25.363Z,95310.47
2023-01-13T21:57:59.515Z,95310.91
2023-01-13T22:00:28.223Z,95312.44
2023-01-13T22:02:55.257Z,95306.69
2023-01-13T22:05:23.905Z,95293.28
2023-01-13T22:07:50.932Z,95302.78
2023-01-13T22:10:22.913Z,95302.31
2023-01-13T22:12:53.230Z,95294.41
2023-01-13T22:15:20.341Z,95298.44
2023-01-13T22:17:50.965Z,95310.41
2023-01-13T22:20:18.424Z,95307.59
2023-01-13T22:22:45.661Z,95294.28
2023-01-13T22:25:14.246Z,95303.66
2023-01-13T22:27:43.202Z,95291.59
2023-01-13T22:30:15.872Z,95299.84
2023-01-13T22:32:42.632Z,95296.38
2023-01-13T22:35:11.243Z,95285.25
2023-01-13T22:37:38.659Z,95291.03
2023-01-13T22:40:07.726Z,95301.50
2023-01-13T22:42:39.365Z,95288.41
2023-01-13T22:45:09.974Z,95305.31
2023-01-13T22:47:36.586Z,95291.66
2023-01-13T22:50:04.165Z,95307.56
2023-01-13T22:52:30.770Z,95270.53
2023-01-13T22:54:57.739Z,95298.16
2023-01-13T22:57:24.407Z,95300.50
2023-01-13T22:59:50.998Z,95297.53
2023-01-13T23:02:17.760Z,95298.03
2023-01-13T23:04:44.443Z,95280.91
2023-01-13T23:07:11.103Z,95279.16
2023-01-13T23:09:37.717Z,95263.22
2023-01-13T23:12:04.536Z,95294.16
2023-01-13T23:14:31.180Z,95287.75
2023-01-13T23:16:57.852Z,95293.19
2023-01-13T23:19:24.874Z,95297.88
2023-01-13T23:21:51.534Z,95276.50
2023-01-13T23:24:18.136Z,95289.94
2023-01-13T23:26:44.715Z,95296.84
2023-01-13T23:29:13.219Z,95289.59
2023-01-13T23:31:40.447Z,95269.72
2023-01-13T23:34:07.519Z,95278.91
2023-01-13T23:36:37.139Z,95272.88
2023-01-13T23:39:03.884Z,95293.81
2023-01-13T23:41:30.471Z,95271.28
2023-01-13T23:43:59.619Z,95290.47
2023-01-13T23:46:28.103Z,95270.47
2023-01-13T23:48:55.589Z,95265.97
2023-01-13T23:51:23.053Z,95281.19
2023-01-13T23:53:50.892Z,95288.75
2023-01-13T23:56:21.463Z,95281.72
2023-01-13T23:58:49.100Z,95278.66
